Breakabeen, New York
Current Conditions -  °F | °C
As of 5:51 AM on Saturday 22 Nov 2014 (Local Time) from KALB Reporting Station
Scattered Clouds Scattered Clouds  
Wind Chill: -13°   Ceiling: Unl
Heat Index: -8°   Visibility: 10mi
Dew Point: -12°   Wind: 6mph
Humidity: 74%   Direction: 190°S
Pressure: 30.4"   Gusts: NA
Location:  42.5337°N, 74.3385°W
Report Text: KALB 221051Z 19005KT 10SM FEW110 SCT140 M08/M12 A3040 RMK AO2 SLP300 T10831122
Loading
Personal Weather Stations






























Interactive Weather Map New forecast layout! Learn more

10-Day Weather Forecast

Advertisements
Track Severe Weather on mobile